Keene, Canada
Current Conditions -  °F | °C
As of 8:00 PM on Monday 24 Nov 2014 (Local Time) from CYPQ Reporting Station
Overcast Overcast  
Wind Chill: 37°   Ceiling: 2700
Heat Index: 45°   Visibility: 9mi
Dew Point: 37°   Wind: 20mph
Humidity: 76%   Direction: 230°SW
Pressure: 29.45"   Gusts: 30mph
Location:  44.24°N, 78.16°W
Report Text: CYPQ 250100Z AUTO 23017G26KT 180V260 9SM OVC027 07/03 A2945 RMK PRESRR SLP975
Loading
Personal Weather Stations






























Interactive Weather Map New forecast layout! Learn more

10-Day Weather Forecast

Advertisements
Track Severe Weather on mobile